KFRG

Republic Airport

Farmingdale, New York, USA
METAR KFRG 221453Z 16009KT 10SM BKN100 19/11 A3016 RMK AO2 SLP213 T01890106 58002
Observed Flight Rules
May-22 @ 14:53 UTC (37 minutes ago) Visual Flight Rules
Wind Visibility Clouds
160° at 9 knots 10 miles
  • Broken at 10,000' AGL
Temperatures Readings
Current 19°C / 66°F
Dewpoint 11°C / 52°F
Humidity 60%
Altimeter 30.16" Hg
Pressure 1021.3 hPa
Elevation 21
METAR KFRG 221453Z 16009KT 10SM BKN100 19/11 A3016 RMK AO2 SLP213 T01890106 58002
Observed Flight Rules
May-22 @ 14:53 UTC
(37 minutes ago)
VFR
Wind Visibility
160° at 9 knots 10 miles
Clouds
  • Broken at 10,000' AGL
Temperature Dewpoint
19°C / 66°F 11°C / 52°F
Humidity Altimeter Pressure
60% 30.16" Hg 1021.3 hPa